Cuzco, Peru

8:06 AM PET on October 22, 2014 (GMT -0500)
Alejandro Velazco Astete | Change Station
CLOSE
Current Station
Airport
Location: Cuzco,
Elevation: 10659 ft
Nearby Weather Stations

Elev 10659 ft 13.54 °S, 71.94 °W | Updated 6 minutes ago

Mostly Cloudy
Mostly Cloudy
54 °F
Feels Like 54 °F
N
0
Wind Variable Wind from North

Today
High -- | Low -- °F
--% Chance of Precip.
Yesterday
High -- | Low -- °F
Precip. -- in
5:18 AM 5:46 PM
Waning Crescent, 2% visible
Pressure 30.57 in
Visibility 6.2 miles
Clouds Few 3300 ft
Mostly Cloudy 5000 ft
Dew Point 41 °F
Humidity 62%
Rainfall 0.00 in
Snow Depth Not available.
UV 4 out of 12
Pollen Not available.
Air Quality Not available.
Flu Activity Not available.
METAR SPZO 221300Z 00000KT 9999 FEW033 BKN050 12/05 Q1035 NOSIG RMK HZ PP000

More Conditions Fewer Conditions

Pressure 30.57 in
Visibility 6.2 miles
Clouds Few 3300 ft
Mostly Cloudy 5000 ft
Dew Point 41 °F
Humidity 62%
Rainfall 0.00 in
Snow Depth Not available.
UV 4 out of 12
Pollen Not available.
Air Quality Not available.
Flu Activity Not available.
METAR SPZO 221300Z 00000KT 9999 FEW033 BKN050 12/05 Q1035 NOSIG RMK HZ PP000

More Conditions Fewer Conditions

10-Day Weather Forecast

Almanac

Astronomy

Oct. 22, 2014 Rise Set
Actual Time 5:18 AM PET 5:46 PM PET
Civil Twilight 4:56 AM PET 6:08 PM PET
Nautical Twilight 4:30 AM PET 6:34 PM PET
Astronomical Twilight 4:05 AM PET 6:59 PM PET
Moon 4:21 AM PET 4:55 PM PET
Length of Visible Light 13h 12m
Length of Day
12h 28m
Tomorrow will be 0m 43s longer.
Waning Crescent, 2% of the Moon is Illuminated
Today
Waning Crescent
Oct 23
New
Oct 30
First Quarter
Nov 6
Full
Nov 14
Last Quarter

Yesterday's Extremes

Country Highs Country Lows

Community

WunderPhotos

Upload Photos

1,763,911 photos uploaded!

Nearby

Snow Depth

Not available.

Earthquake Activity

City Distance Mag. Time & Date
No recent earthquake activity has been reported nearby.
Minimum magnitude displayed is 2.5.

Coastal Water Temperatures

Place Temperature
No Stations Reporting

Nearby Weather Stations